Terminal Aerodrome Forecast
Issued by NWS

Home | Current Version | Previous Version | Text Only | Print | Product List | Glossary On
Versions: 1 2 3 4 5 6 7 8 9 10 11 12 13 14 15 16 17 18 19 20 21 22 23 24
000
FTUS45 KBOU 282320
TAFBJC
TAF
KBJC 282320Z 2900/2924 11009KT P6SM SCT070 BKN140
     FM290200 28007KT P6SM FEW080 SCT160
     FM291400 VRB05KT P6SM FEW080 SCT160
     FM291900 08007KT P6SM SCT070 SCT160
     FM292100 30011KT P6SM SCT070 BKN140 PROB30 2921/2924 VRB18G30KT
      -TSRA BKN070CB=

USA.gov is the U.S. government's official web portal to all federal, state and local government web resources and services.